Terminal Aerodrome Forecast
Issued by NWS Missoula, MT

Home | Current Version | Previous Version | Text Only | Print | Product List | Glossary On
Versions: 1 2 3 4 5 6 7 8 9 10 11 12
587
FTUS45 KMSO 162335
TAFBTM
TAF
KBTM 162335Z 1700/1724 22009KT P6SM SKC
     FM170300 16005KT P6SM SKC
     FM171900 22011G20KT P6SM SCT200
     FM172200 25020G30KT P6SM SCT200=

USA.gov is the U.S. government's official web portal to all federal, state and local government web resources and services.